Time;durP1;ratioP1;P1;durP2;ratioP2;P2;SDS_P1;SDS_P2;PMS_P1;PMS_P2;Temp;Humidity;BMP_temperature;BMP_pressure;BME280_temperature;BME280_humidity;BME280_pressure;Samples;Min_cycle;Max_cycle;Signal;HPM_P1;HPM_P2
2022/10/29 00:02:12;;;;;;;;;;;16.00;99.90;;;;;;5036000;28;19912;-68
2022/10/29 00:04:37;;;;;;;;;;;16.00;99.90;;;;;;5035343;28;19905;-67
2022/10/29 00:07:02;;;;;;;;;;;15.90;99.90;;;;;;5035604;28;19966;-66
2022/10/29 00:09:28;;;;;;;;;;;15.90;99.90;;;;;;5017956;28;20259;-68
2022/10/29 00:11:53;;;;;;;;;;;15.90;99.90;;;;;;5035898;28;20001;-66
2022/10/29 00:14:19;;;;;;;;;;;15.90;99.90;;;;;;5035450;28;19931;-67
2022/10/29 00:16:44;;;;;;;;;;;15.80;99.90;;;;;;5037142;28;19952;-67
2022/10/29 00:19:10;;;;;;;;;;;15.80;99.90;;;;;;5035684;28;20316;-67
2022/10/29 00:21:36;;;;;;;;;;;15.80;99.90;;;;;;5017716;28;19952;-67
2022/10/29 00:24:02;;;;;;;;;;;15.80;99.90;;;;;;5017783;28;19999;-67
2022/10/29 00:26:28;;;;;;;;;;;15.80;99.90;;;;;;5035012;28;19956;-67
2022/10/29 00:28:54;;;;;;;;;;;15.80;99.90;;;;;;5017781;28;19913;-67
2022/10/29 00:31:23;;;;;;;;;;;15.90;99.90;;;;;;5035240;28;20361;-67
2022/10/29 00:33:49;;;;;;;;;;;15.80;99.90;;;;;;5035221;28;19905;-68
2022/10/29 00:36:15;;;;;;;;;;;15.80;99.90;;;;;;5035203;28;20318;-67
2022/10/29 00:38:41;;;;;;;;;;;15.80;99.90;;;;;;5017268;28;19999;-68
2022/10/29 00:41:07;;;;;;;;;;;15.80;99.90;;;;;;5034649;28;20403;-67
2022/10/29 00:43:33;;;;;;;;;;;15.80;99.90;;;;;;5034828;28;19912;-67
2022/10/29 00:46:05;;;;;;;;;;;15.80;99.90;;;;;;5035026;28;19931;-67
2022/10/29 00:48:32;;;;;;;;;;;15.80;99.90;;;;;;5035286;28;19940;-67
2022/10/29 00:50:59;;;;;;;;;;;15.70;99.90;;;;;;5034750;28;20042;-67
2022/10/29 00:53:26;;;;;;;;;;;15.70;99.90;;;;;;5035067;28;19905;-67
2022/10/29 00:55:51;;;;;;;;;;;15.70;99.90;;;;;;5034878;28;19905;-67
2022/10/29 00:58:17;;;;;;;;;;;15.70;99.90;;;;;;5016870;28;20369;-67
2022/10/29 01:00:43;;;;;;;;;;;15.70;99.90;;;;;;5034714;28;19958;-67
2022/10/29 01:03:08;;;;;;;;;;;15.60;99.90;;;;;;5016975;28;20274;-68
2022/10/29 01:05:35;;;;;;;;;;;15.70;99.90;;;;;;5034947;28;19959;-67
2022/10/29 01:08:00;;;;;;;;;;;15.60;99.90;;;;;;5034837;28;19912;-67
2022/10/29 01:10:39;;;;;;;;;;;15.60;99.90;;;;;;5016821;28;19905;-67
2022/10/29 01:13:19;;;;;;;;;;;15.50;99.90;;;;;;5016636;28;20395;-67
2022/10/29 01:16:06;;;;;;;;;;;15.60;99.90;;;;;;5016692;28;19905;-67
2022/10/29 01:18:36;;;;;;;;;;;15.50;99.90;;;;;;5016685;28;20037;-67
2022/10/29 01:21:12;;;;;;;;;;;15.50;99.90;;;;;;5034194;28;19962;-68
2022/10/29 01:24:01;;;;;;;;;;;15.50;99.90;;;;;;5034509;28;19912;-68
2022/10/29 01:26:45;;;;;;;;;;;15.50;99.90;;;;;;5015416;28;19928;-66
2022/10/29 01:29:20;;;;;;;;;;;15.50;99.90;;;;;;5016409;28;20354;-67
2022/10/29 01:31:58;;;;;;;;;;;15.40;99.90;;;;;;5034036;28;19964;-68
2022/10/29 01:34:32;;;;;;;;;;;15.40;99.90;;;;;;5034428;28;19951;-68
2022/10/29 01:37:00;;;;;;;;;;;15.40;99.90;;;;;;5034658;28;19905;-68
2022/10/29 01:39:25;;;;;;;;;;;15.40;99.90;;;;;;5034174;28;19909;-68
2022/10/29 01:42:14;;;;;;;;;;;15.40;99.90;;;;;;5033446;28;20054;-67
2022/10/29 01:44:49;;;;;;;;;;;15.40;99.90;;;;;;5010641;28;19986;-67
2022/10/29 01:47:17;;;;;;;;;;;15.40;99.90;;;;;;5033776;28;20381;-67
2022/10/29 01:49:44;;;;;;;;;;;15.30;99.90;;;;;;5033922;28;20250;-67
2022/10/29 01:52:11;;;;;;;;;;;15.30;99.90;;;;;;5016104;28;19905;-67
2022/10/29 01:54:40;;;;;;;;;;;15.20;99.90;;;;;;5033931;28;20376;-67
2022/10/29 01:57:27;;;;;;;;;;;15.20;99.90;;;;;;5033382;28;19909;-68
2022/10/29 01:59:53;;;;;;;;;;;15.20;99.90;;;;;;5033571;28;19909;-68
2022/10/29 02:02:37;;;;;;;;;;;15.20;99.90;;;;;;5015838;28;19996;-67
2022/10/29 02:05:06;;;;;;;;;;;15.20;99.90;;;;;;5033727;28;19905;-68
2022/10/29 02:07:48;;;;;;;;;;;15.10;99.90;;;;;;5033613;28;19936;-68
2022/10/29 02:10:26;;;;;;;;;;;15.10;99.90;;;;;;5033420;28;20281;-67
2022/10/29 02:12:52;;;;;;;;;;;15.00;99.90;;;;;;5033308;28;19962;-67
2022/10/29 02:15:18;;;;;;;;;;;15.00;99.90;;;;;;5033630;28;19905;-68
2022/10/29 02:17:43;;;;;;;;;;;14.90;99.90;;;;;;5033517;28;19913;-68
2022/10/29 02:20:10;;;;;;;;;;;14.90;99.90;;;;;;5033500;28;20407;-68
2022/10/29 02:22:36;;;;;;;;;;;14.80;99.90;;;;;;5015576;28;19905;-68
2022/10/29 02:25:02;;;;;;;;;;;14.90;99.90;;;;;;5033548;28;19964;-68
2022/10/29 02:27:27;;;;;;;;;;;15.00;99.90;;;;;;5033097;28;19947;-67
2022/10/29 02:29:52;;;;;;;;;;;14.90;99.90;;;;;;5033418;28;19909;-68
2022/10/29 02:32:18;;;;;;;;;;;14.90;99.90;;;;;;5033672;28;19905;-68
2022/10/29 02:34:43;;;;;;;;;;;14.80;99.90;;;;;;5033537;28;19905;-68
2022/10/29 02:37:09;;;;;;;;;;;14.70;99.90;;;;;;5033376;28;19909;-68
2022/10/29 02:39:34;;;;;;;;;;;14.90;99.90;;;;;;5037299;28;20387;-68
2022/10/29 02:42:00;;;;;;;;;;;15.00;99.90;;;;;;5058280;23;20373;-70
2022/10/29 02:44:25;;;;;;;;;;;14.90;99.90;;;;;;5019198;28;19909;-68
2022/10/29 02:46:50;;;;;;;;;;;15.00;99.90;;;;;;5037629;28;19912;-68
2022/10/29 02:49:16;;;;;;;;;;;15.00;99.90;;;;;;5037484;28;20357;-68
2022/10/29 02:51:41;;;;;;;;;;;15.10;99.90;;;;;;5037448;28;20365;-68
2022/10/29 02:54:07;;;;;;;;;;;15.10;99.90;;;;;;5019752;28;19931;-69
2022/10/29 02:56:32;;;;;;;;;;;15.00;99.90;;;;;;5036805;28;19912;-69
2022/10/29 02:58:58;;;;;;;;;;;14.90;99.90;;;;;;5036964;28;19959;-68
2022/10/29 03:01:23;;;;;;;;;;;14.80;99.90;;;;;;5019372;28;19955;-68
2022/10/29 03:03:49;;;;;;;;;;;14.70;99.90;;;;;;5037052;28;19905;-69
2022/10/29 03:06:15;;;;;;;;;;;14.80;99.90;;;;;;5036871;28;20281;-68
2022/10/29 03:08:40;;;;;;;;;;;14.80;99.90;;;;;;5037026;28;19909;-68
2022/10/29 03:11:05;;;;;;;;;;;14.70;99.90;;;;;;5018936;28;19905;-68
2022/10/29 03:13:31;;;;;;;;;;;14.70;99.90;;;;;;5036809;28;19945;-68
2022/10/29 03:15:56;;;;;;;;;;;14.60;99.90;;;;;;5036759;28;19909;-69
2022/10/29 03:18:22;;;;;;;;;;;14.50;99.90;;;;;;5036624;28;20035;-68
2022/10/29 03:20:47;;;;;;;;;;;14.50;99.90;;;;;;5036612;28;19905;-69
2022/10/29 03:23:13;;;;;;;;;;;14.50;99.90;;;;;;5036583;28;19905;-68
2022/10/29 03:25:38;;;;;;;;;;;14.40;99.90;;;;;;5018642;28;20027;-69
2022/10/29 03:28:04;;;;;;;;;;;14.30;99.90;;;;;;5036690;28;20007;-69
2022/10/29 03:30:29;;;;;;;;;;;14.30;99.90;;;;;;5036475;28;20003;-69
2022/10/29 03:32:55;;;;;;;;;;;14.40;99.90;;;;;;5018837;28;19905;-69
2022/10/29 03:35:20;;;;;;;;;;;14.40;99.90;;;;;;5036881;28;20373;-68
2022/10/29 03:37:49;;;;;;;;;;;14.40;99.90;;;;;;5018973;28;20354;-69
2022/10/29 03:40:15;;;;;;;;;;;14.40;99.90;;;;;;5036622;28;19905;-69
2022/10/29 03:42:40;;;;;;;;;;;14.30;99.90;;;;;;5036637;28;19909;-69
2022/10/29 03:45:06;;;;;;;;;;;14.30;99.90;;;;;;5036244;28;19911;-68
2022/10/29 03:47:32;;;;;;;;;;;14.30;99.90;;;;;;5018485;28;19905;-69
2022/10/29 03:49:57;;;;;;;;;;;14.50;99.90;;;;;;5035091;28;19952;-69
2022/10/29 03:52:23;;;;;;;;;;;14.50;99.90;;;;;;5036006;28;19955;-68
2022/10/29 03:54:48;;;;;;;;;;;14.50;99.90;;;;;;5018390;28;19905;-69
2022/10/29 03:57:14;;;;;;;;;;;14.70;99.90;;;;;;5018501;28;19909;-69
2022/10/29 03:59:39;;;;;;;;;;;14.70;99.90;;;;;;5018714;28;19913;-69
2022/10/29 04:02:05;;;;;;;;;;;14.70;99.90;;;;;;5036333;28;20350;-68
2022/10/29 04:04:30;;;;;;;;;;;14.60;99.90;;;;;;5036604;28;20012;-68
2022/10/29 04:06:56;;;;;;;;;;;14.60;99.90;;;;;;5036380;28;19955;-68
2022/10/29 04:09:21;;;;;;;;;;;14.60;99.90;;;;;;5036892;28;20004;-68
2022/10/29 04:11:46;;;;;;;;;;;14.50;99.90;;;;;;5035926;28;20377;-68
2022/10/29 04:14:12;;;;;;;;;;;14.40;99.90;;;;;;5036322;28;20316;-69
2022/10/29 04:16:37;;;;;;;;;;;14.40;99.90;;;;;;5017823;28;19909;-68
2022/10/29 04:19:03;;;;;;;;;;;14.40;99.90;;;;;;5017879;28;19909;-69
2022/10/29 04:21:28;;;;;;;;;;;14.40;99.90;;;;;;5017792;28;19905;-68
2022/10/29 04:23:54;;;;;;;;;;;14.40;99.90;;;;;;5035553;28;19905;-69
2022/10/29 04:26:19;;;;;;;;;;;14.40;99.90;;;;;;5035372;28;19956;-69
2022/10/29 04:28:48;;;;;;;;;;;14.40;99.90;;;;;;5017707;28;20289;-69
2022/10/29 04:31:13;;;;;;;;;;;14.40;99.90;;;;;;5017630;28;19928;-68
2022/10/29 04:33:39;;;;;;;;;;;14.40;99.90;;;;;;5035383;28;19905;-68
2022/10/29 04:36:05;;;;;;;;;;;14.40;99.90;;;;;;5035226;28;19955;-68
2022/10/29 04:38:30;;;;;;;;;;;14.30;99.90;;;;;;5035156;28;19943;-68
2022/10/29 04:40:56;;;;;;;;;;;14.20;99.90;;;;;;5016836;28;20373;-68
2022/10/29 04:43:22;;;;;;;;;;;14.20;99.90;;;;;;5035210;28;20278;-68
2022/10/29 04:45:51;;;;;;;;;;;14.20;99.90;;;;;;5035765;28;19909;-68
2022/10/29 04:48:16;;;;;;;;;;;14.20;99.90;;;;;;5035332;28;20272;-68
2022/10/29 04:50:42;;;;;;;;;;;14.20;99.90;;;;;;5034881;28;19992;-67
2022/10/29 04:53:07;;;;;;;;;;;14.10;99.90;;;;;;5034865;28;19909;-70
2022/10/29 04:55:34;;;;;;;;;;;14.10;99.90;;;;;;5035011;28;19928;-67
2022/10/29 04:58:00;;;;;;;;;;;14.10;99.90;;;;;;5017113;28;20007;-68
2022/10/29 05:00:25;;;;;;;;;;;14.20;99.90;;;;;;5034580;28;20364;-67
2022/10/29 05:02:51;;;;;;;;;;;14.20;99.90;;;;;;5017072;28;19905;-69
2022/10/29 05:05:18;;;;;;;;;;;14.10;99.90;;;;;;5034795;28;19911;-68
2022/10/29 05:07:43;;;;;;;;;;;14.10;99.90;;;;;;5017346;28;19951;-69
2022/10/29 05:10:09;;;;;;;;;;;14.20;99.90;;;;;;5034686;28;19905;-69
2022/10/29 05:12:34;;;;;;;;;;;14.20;99.90;;;;;;5016820;28;19954;-69
2022/10/29 05:15:00;;;;;;;;;;;14.10;99.90;;;;;;5017192;28;20230;-68
2022/10/29 05:17:25;;;;;;;;;;;14.10;99.90;;;;;;5017584;28;20039;-69
2022/10/29 05:19:51;;;;;;;;;;;14.10;99.90;;;;;;5038063;28;20361;-69
2022/10/29 05:22:19;;;;;;;;;;;14.00;99.90;;;;;;5036653;28;20001;-68
2022/10/29 05:24:45;;;;;;;;;;;14.00;99.90;;;;;;5021334;28;19928;-68
2022/10/29 05:27:10;;;;;;;;;;;14.20;99.90;;;;;;5039839;28;19909;-69
2022/10/29 05:29:36;;;;;;;;;;;14.30;99.90;;;;;;5038704;28;20325;-68
2022/10/29 05:32:04;;;;;;;;;;;14.30;99.90;;;;;;5038672;28;19976;-69
2022/10/29 05:34:29;;;;;;;;;;;14.20;99.90;;;;;;5037875;28;20385;-69
2022/10/29 05:36:55;;;;;;;;;;;14.10;99.90;;;;;;5043588;28;19905;-69
2022/10/29 05:39:21;;;;;;;;;;;14.00;99.90;;;;;;5035404;28;20285;-69
2022/10/29 05:41:47;;;;;;;;;;;14.00;99.90;;;;;;5016298;28;20000;-68
2022/10/29 05:44:12;;;;;;;;;;;13.90;99.90;;;;;;5034747;28;19952;-68
2022/10/29 05:46:37;;;;;;;;;;;13.90;99.90;;;;;;5034649;28;19905;-69
2022/10/29 05:49:03;;;;;;;;;;;14.00;99.90;;;;;;5034418;28;19911;-69
2022/10/29 05:51:28;;;;;;;;;;;14.00;99.90;;;;;;5034419;28;20016;-68
2022/10/29 05:53:54;;;;;;;;;;;14.00;99.90;;;;;;5033926;28;19905;-68
2022/10/29 05:56:19;;;;;;;;;;;14.00;99.90;;;;;;5033887;28;19905;-68
2022/10/29 05:58:47;;;;;;;;;;;13.90;99.90;;;;;;5034100;28;20358;-68
2022/10/29 06:01:12;;;;;;;;;;;13.80;99.90;;;;;;5033940;28;20415;-68
2022/10/29 06:03:38;;;;;;;;;;;13.80;99.90;;;;;;5034036;28;19988;-68
2022/10/29 06:06:03;;;;;;;;;;;13.80;99.90;;;;;;5034099;28;19905;-68
2022/10/29 06:08:29;;;;;;;;;;;13.80;99.90;;;;;;5016353;28;20277;-68
2022/10/29 06:10:54;;;;;;;;;;;13.80;99.90;;;;;;5015790;28;19904;-68
2022/10/29 06:13:20;;;;;;;;;;;13.80;99.90;;;;;;5015484;28;20023;-68
2022/10/29 06:15:46;;;;;;;;;;;13.80;99.90;;;;;;5033907;28;19905;-68
2022/10/29 06:18:12;;;;;;;;;;;13.80;99.90;;;;;;5034150;28;19915;-68
2022/10/29 06:20:38;;;;;;;;;;;13.80;99.90;;;;;;5033621;28;19909;-68
2022/10/29 06:23:03;;;;;;;;;;;13.80;99.90;;;;;;5016046;28;19905;-68
2022/10/29 06:25:29;;;;;;;;;;;13.80;99.90;;;;;;5033873;28;19905;-68
2022/10/29 06:27:58;;;;;;;;;;;13.80;99.90;;;;;;5033437;28;20292;-69
2022/10/29 06:30:24;;;;;;;;;;;13.90;99.90;;;;;;5015989;28;19905;-69
2022/10/29 06:32:49;;;;;;;;;;;13.90;99.90;;;;;;5033726;28;19970;-69
2022/10/29 06:35:15;;;;;;;;;;;14.00;99.90;;;;;;5015981;28;19912;-69
2022/10/29 06:37:40;;;;;;;;;;;14.00;99.90;;;;;;5015975;28;20377;-68
2022/10/29 06:40:06;;;;;;;;;;;14.10;99.90;;;;;;5033762;28;20019;-68
2022/10/29 06:42:31;;;;;;;;;;;14.10;99.90;;;;;;5015874;28;19913;-69
2022/10/29 06:44:57;;;;;;;;;;;14.00;99.90;;;;;;5033753;28;19948;-69
2022/10/29 06:47:22;;;;;;;;;;;13.90;99.90;;;;;;5034006;28;19909;-69
2022/10/29 06:49:48;;;;;;;;;;;14.00;99.90;;;;;;5033999;28;19912;-68
2022/10/29 06:52:13;;;;;;;;;;;13.90;99.90;;;;;;5021715;28;20368;-69
2022/10/29 06:54:39;;;;;;;;;;;13.90;99.90;;;;;;5030970;28;20007;-68
2022/10/29 06:57:04;;;;;;;;;;;14.00;99.90;;;;;;5033079;28;19906;-68
2022/10/29 06:59:29;;;;;;;;;;;14.00;99.90;;;;;;5015868;28;20320;-69
2022/10/29 07:01:55;;;;;;;;;;;14.20;99.90;;;;;;5033913;28;19988;-68
2022/10/29 07:04:21;;;;;;;;;;;14.20;99.90;;;;;;5016671;28;19912;-70
2022/10/29 07:06:46;;;;;;;;;;;14.40;99.90;;;;;;5034535;28;19905;-69
2022/10/29 07:09:12;;;;;;;;;;;14.40;99.90;;;;;;5034658;28;19983;-69
2022/10/29 07:11:37;;;;;;;;;;;14.50;99.90;;;;;;5016029;28;19916;-69
2022/10/29 07:14:04;;;;;;;;;;;14.60;99.90;;;;;;5034688;28;19905;-69
2022/10/29 07:16:30;;;;;;;;;;;14.60;99.90;;;;;;5034784;28;19905;-67
2022/10/29 07:18:56;;;;;;;;;;;14.50;99.90;;;;;;5035153;28;20092;-68
2022/10/29 07:21:22;;;;;;;;;;;14.60;99.90;;;;;;5034366;28;20357;-68
2022/10/29 07:23:47;;;;;;;;;;;14.70;99.90;;;;;;5035087;28;19908;-72
2022/10/29 07:26:14;;;;;;;;;;;14.80;99.90;;;;;;5019990;28;19909;-72
2022/10/29 07:28:39;;;;;;;;;;;14.70;99.90;;;;;;5019855;28;19905;-68
2022/10/29 07:31:06;;;;;;;;;;;14.80;99.90;;;;;;5036704;28;19905;-68
2022/10/29 07:33:32;;;;;;;;;;;14.80;99.90;;;;;;5036700;28;20384;-73
2022/10/29 07:35:58;;;;;;;;;;;14.90;99.90;;;;;;5018832;28;19956;-72
2022/10/29 07:38:23;;;;;;;;;;;14.90;99.90;;;;;;5018700;28;20011;-71
2022/10/29 07:40:49;;;;;;;;;;;15.00;99.90;;;;;;5018416;28;19913;-68
2022/10/29 07:43:15;;;;;;;;;;;15.10;99.90;;;;;;5018643;28;19905;-69
2022/10/29 07:45:43;;;;;;;;;;;15.30;99.90;;;;;;5018658;28;19905;-72
2022/10/29 07:48:08;;;;;;;;;;;15.40;99.90;;;;;;5018803;28;19971;-73
2022/10/29 07:50:35;;;;;;;;;;;15.40;99.90;;;;;;5018539;28;20369;-68
2022/10/29 07:53:01;;;;;;;;;;;15.50;99.90;;;;;;5036648;28;19980;-71
2022/10/29 07:55:27;;;;;;;;;;;15.60;99.90;;;;;;5018332;28;19905;-72
2022/10/29 07:57:57;;;;;;;;;;;15.60;99.90;;;;;;5017977;28;19916;-72
2022/10/29 08:00:24;;;;;;;;;;;15.70;99.90;;;;;;5018339;28;19904;-72
2022/10/29 08:02:53;;;;;;;;;;;15.70;99.90;;;;;;5018314;28;19905;-71
2022/10/29 08:05:18;;;;;;;;;;;15.90;99.90;;;;;;5018131;28;19916;-72
2022/10/29 08:07:44;;;;;;;;;;;16.00;99.90;;;;;;5018070;28;20266;-71
2022/10/29 08:10:09;;;;;;;;;;;16.20;99.90;;;;;;5036100;28;19908;-72
2022/10/29 08:12:58;;;;;;;13.70;5.05;;;16.30;99.90;;;;;;5111788;27;20299;-71
2022/10/29 08:15:25;;;;;;;16.88;7.05;;;16.40;99.90;;;;;;5109835;28;20051;-70
2022/10/29 08:17:51;;;;;;;19.00;5.85;;;16.30;99.90;;;;;;5110996;28;20020;-70
2022/10/29 08:20:17;;;;;;;15.48;6.10;;;16.40;99.90;;;;;;5111014;28;20095;-68
2022/10/29 08:22:43;;;;;;;;;;;16.30;99.90;;;;;;5111820;28;20050;-68
2022/10/29 08:25:09;;;;;;;17.20;5.85;;;16.30;99.90;;;;;;5111237;28;19904;-68
2022/10/29 08:27:35;;;;;;;17.30;6.20;;;16.30;99.90;;;;;;5110743;28;20032;-71
2022/10/29 08:30:01;;;;;;;15.53;6.60;;;16.30;99.90;;;;;;5110885;28;20105;-69
2022/10/29 08:32:26;;;;;;;21.52;7.50;;;16.20;99.90;;;;;;5111014;28;20380;-71
2022/10/29 08:34:52;;;;;;;13.30;5.88;;;16.20;99.90;;;;;;5110040;28;20020;-70
2022/10/29 08:37:17;;;;;;;15.05;5.90;;;16.20;99.90;;;;;;5110687;28;20020;-70
2022/10/29 08:39:43;;;;;;;17.07;6.53;;;16.30;99.90;;;;;;5109337;28;20116;-70
2022/10/29 08:42:26;;;;;;;11.27;5.33;;;16.40;99.90;;;;;;5094705;28;20170;-70
2022/10/29 08:45:17;;;;;;;17.00;6.30;;;16.50;99.90;;;;;;5090732;28;20385;-71
2022/10/29 08:47:45;;;;;;;20.70;10.13;;;16.70;99.90;;;;;;5090290;28;20032;-70
2022/10/29 08:50:26;;;;;;;17.90;7.00;;;16.80;99.90;;;;;;5089003;28;20086;-73
2022/10/29 08:52:53;;;;;;;18.20;5.78;;;16.90;99.90;;;;;;5090009;28;20426;-74
2022/10/29 08:55:25;;;;;;;17.95;6.57;;;17.00;99.90;;;;;;5088937;28;20020;-70
2022/10/29 08:57:58;;;;;;;18.42;8.20;;;17.20;99.90;;;;;;5088546;28;20115;-70
2022/10/29 09:00:33;;;;;;;17.45;7.82;;;17.30;99.90;;;;;;5089964;28;20020;-71
2022/10/29 09:03:00;;;;;;;13.75;6.35;;;17.20;99.90;;;;;;5088625;28;20495;-71
2022/10/29 09:05:35;;;;;;;19.98;6.70;;;17.20;99.90;;;;;;5089719;28;20032;-71
2022/10/29 09:08:08;;;;;;;15.75;5.82;;;17.20;99.90;;;;;;5088470;28;20031;-71
2022/10/29 09:10:43;;;;;;;13.98;5.15;;;17.40;99.90;;;;;;5089741;28;20031;-71
2022/10/29 09:13:22;;;;;;;18.17;6.95;;;17.60;99.90;;;;;;5091246;28;20496;-74
2022/10/29 09:15:59;;;;;;;13.43;5.15;;;17.90;99.90;;;;;;5091657;28;20064;-74
2022/10/29 09:18:40;;;;;;;22.40;5.50;;;18.50;99.90;;;;;;5088638;28;20016;-71
2022/10/29 09:21:15;;;;;;;16.60;4.82;;;19.70;99.90;;;;;;5088466;28;20039;-78
2022/10/29 09:24:02;;;;;;;14.07;5.15;;;20.80;99.90;;;;;;5081477;28;20032;-79
2022/10/29 09:26:50;;;;;;;18.23;5.18;;;21.40;99.90;;;;;;5076294;28;20028;-80
2022/10/29 09:29:37;;;;;;;12.57;5.40;;;21.40;99.90;;;;;;5078990;28;20029;-78
2022/10/29 09:32:04;;;;;;;;;;;21.40;99.90;;;;;;5078912;28;20035;-78
2022/10/29 09:34:37;;;;;;;;;;;21.20;99.90;;;;;;5078966;28;20361;-77
2022/10/29 09:37:12;;;;;;;13.70;5.15;;;21.00;99.90;;;;;;5074675;28;19908;-77
2022/10/29 09:39:41;;;;;;;18.08;5.00;;;20.90;99.90;;;;;;5075156;28;20457;-77
2022/10/29 09:42:23;;;;;;;15.55;6.00;;;20.80;99.90;;;;;;5075071;28;20115;-77
2022/10/29 09:44:56;;;;;;;17.13;6.13;;;21.00;99.90;;;;;;5074723;28;20384;-72
2022/10/29 09:47:33;;;;;;;14.68;5.00;;;21.30;99.90;;;;;;5075960;28;20024;-72
2022/10/29 09:50:10;;;;;;;14.40;5.95;;;21.80;99.90;;;;;;5075910;28;20024;-73
2022/10/29 09:52:41;;;;;;;15.10;4.90;;;21.70;99.90;;;;;;5074172;28;20473;-71
2022/10/29 09:55:16;;;;;;;12.32;5.15;;;22.20;99.90;;;;;;5075586;28;20060;-72
2022/10/29 09:57:42;;;;;;;13.93;5.15;;;22.70;99.90;;;;;;5074010;28;20442;-69
2022/10/29 10:00:29;;;;;;;13.35;5.30;;;23.50;99.90;;;;;;5075539;28;20103;-70
2022/10/29 10:03:12;;;;;;;11.18;5.22;;;24.00;99.90;;;;;;5075907;28;20078;-70
2022/10/29 10:06:01;;;;;;;18.10;5.07;;;24.70;99.90;;;;;;5075308;28;20040;-70
2022/10/29 10:08:27;;;;;;;15.27;4.78;;;25.10;99.80;;;;;;5075430;28;20025;-74
2022/10/29 10:10:54;;;;;;;17.90;5.10;;;26.00;98.50;;;;;;5079569;28;20032;-73
2022/10/29 10:13:29;;;;;;;14.52;4.63;;;25.60;98.00;;;;;;5095068;28;20024;-76
2022/10/29 10:15:57;;;;;;;12.45;4.45;;;26.00;97.90;;;;;;5096181;28;20108;-77
2022/10/29 10:18:30;;;;;;;17.55;5.18;;;26.90;96.70;;;;;;5097697;28;20488;-74
2022/10/29 10:21:04;;;;;;;21.67;5.35;;;26.80;95.80;;;;;;5097641;28;20024;-74
2022/10/29 10:23:51;;;;;;;11.40;4.38;;;26.50;96.00;;;;;;5095295;28;20078;-73
2022/10/29 10:26:38;;;;;;;13.95;5.30;;;27.20;94.80;;;;;;5096526;28;20020;-73
2022/10/29 10:29:20;;;;;;;17.58;5.20;;;26.70;95.10;;;;;;5094628;28;20111;-74
2022/10/29 10:31:54;;;;;;;15.05;4.82;;;26.10;95.30;;;;;;5097512;28;20043;-73
2022/10/29 10:34:25;;;;;;;11.30;4.38;;;25.50;95.90;;;;;;5094494;28;20099;-74
2022/10/29 10:36:53;;;;;;;13.80;4.97;;;24.70;96.70;;;;;;5094149;28;20101;-75
2022/10/29 10:39:20;;;;;;;12.85;4.82;;;24.70;96.50;;;;;;5095592;28;20109;-74
2022/10/29 10:41:48;;;;;;;14.82;5.45;;;25.60;96.10;;;;;;5094624;28;20062;-73
2022/10/29 10:44:14;;;;;;;11.70;4.45;;;25.00;96.80;;;;;;5095028;28;20035;-72
2022/10/29 10:46:50;;;;;;;15.35;4.88;;;25.20;96.30;;;;;;5093705;28;20470;-73
2022/10/29 10:49:17;;;;;;;;;;;24.50;96.50;;;;;;5094067;28;20024;-73
2022/10/29 10:51:49;;;;;;;14.65;4.85;;;24.30;97.40;;;;;;5093455;28;20344;-73
2022/10/29 10:54:54;;;;;;;11.10;4.80;;;23.80;97.80;;;;;;5094626;28;20476;-73
2022/10/29 10:57:23;;;;;;;15.05;5.25;;;23.40;98.90;;;;;;5072034;28;20036;-73
2022/10/29 10:59:58;;;;;;;15.35;4.47;;;22.90;99.10;;;;;;5055445;28;20075;-73
2022/10/29 11:02:49;;;;;;;15.18;5.45;;;22.70;99.40;;;;;;5055407;28;20035;-73
2022/10/29 11:05:18;;;;;;;14.00;4.18;;;22.50;99.40;;;;;;5072211;28;20025;-73
2022/10/29 11:08:11;;;;;;;11.23;4.70;;;22.40;99.50;;;;;;5072295;28;20547;-72
2022/10/29 11:10:59;;;;;;;14.23;3.80;;;22.40;99.50;;;;;;5051944;28;20079;-73
2022/10/29 11:13:28;;;;;;;17.58;4.70;;;22.20;99.60;;;;;;5035978;28;20124;-74
2022/10/29 11:16:06;;;;;;;12.07;5.10;;;22.20;99.90;;;;;;5052738;28;20187;-73
2022/10/29 11:18:35;;;;;;;15.75;4.40;;;22.00;99.90;;;;;;5038477;28;20124;-74
2022/10/29 11:21:04;;;;;;;11.73;4.57;;;22.10;99.90;;;;;;5059527;28;20041;-74
2022/10/29 11:23:45;;;;;;;13.40;3.83;;;21.70;99.90;;;;;;5055970;28;20089;-76
2022/10/29 11:26:13;;;;;;;12.63;4.93;;;21.50;99.90;;;;;;5036134;28;20536;-76
2022/10/29 11:28:51;;;;;;;13.63;4.60;;;21.50;99.90;;;;;;5034908;28;20029;-72
2022/10/29 11:31:28;;;;;;;12.13;3.83;;;21.60;99.90;;;;;;5052645;28;20033;-71
2022/10/29 11:34:17;;;;;;;15.93;3.88;;;21.80;99.90;;;;;;5072334;28;20032;-75
2022/10/29 11:37:01;;;;;;;14.15;3.63;;;21.80;99.90;;;;;;5091810;28;20060;-75
2022/10/29 11:39:37;;;;;;;13.20;3.95;;;22.00;99.90;;;;;;5093298;28;20042;-73
2022/10/29 11:42:04;;;;;;;13.27;4.03;;;22.10;99.90;;;;;;5074446;28;20035;-73
2022/10/29 11:44:36;;;;;;;17.25;4.63;;;22.00;99.90;;;;;;5074262;28;20043;-73
2022/10/29 11:47:17;;;;;;;11.40;4.28;;;22.10;99.90;;;;;;5074465;28;20478;-73
2022/10/29 11:50:08;;;;;;;12.32;4.10;;;22.10;99.90;;;;;;5073558;28;20032;-73
2022/10/29 11:52:46;;;;;;;13.85;3.95;;;22.20;99.90;;;;;;5072819;28;20028;-77
2022/10/29 11:55:44;;;;;;;16.10;4.88;;;22.10;99.90;;;;;;5074176;28;20028;-73
2022/10/29 11:58:32;;;;;;;16.20;4.35;;;22.40;99.90;;;;;;5073957;28;20031;-72
2022/10/29 12:01:30;;;;;;;17.73;4.22;;;22.40;99.90;;;;;;5076049;28;20025;-75
2022/10/29 12:04:16;;;;;;;11.48;3.67;;;22.60;99.90;;;;;;5061299;28;20111;-72
2022/10/29 12:06:44;;;;;;;14.27;4.47;;;22.50;99.90;;;;;;5083030;28;20024;-75
2022/10/29 12:09:53;;;;;;;12.20;4.63;;;22.40;99.90;;;;;;5084839;28;20029;-72
2022/10/29 12:12:52;;;;;;;16.13;5.90;;;22.50;99.90;;;;;;5080207;28;20492;-74
2022/10/29 12:15:39;;;;;;;22.60;4.90;;;22.30;99.90;;;;;;5078297;28;20477;-70
2022/10/29 12:18:18;;;;;;;9.73;3.55;;;22.00;99.90;;;;;;5073268;28;20024;-71
2022/10/29 12:20:59;;;;;;;15.32;4.00;;;22.30;99.90;;;;;;5072409;28;20115;-72
2022/10/29 12:24:01;;;;;;;12.38;3.50;;;22.40;99.90;;;;;;5072772;28;20396;-76
2022/10/29 12:26:41;;;;;;;14.73;6.68;;;22.40;99.90;;;;;;5073769;28;20012;-73
2022/10/29 12:29:25;;;;;;;13.68;5.78;;;22.60;99.90;;;;;;5071604;28;20027;-74
2022/10/29 12:31:54;;;;;;;21.02;9.82;;;22.60;99.90;;;;;;5072841;28;20113;-74
2022/10/29 12:34:24;;;;;;;16.73;5.93;;;22.80;99.90;;;;;;5071827;28;20124;-75
2022/10/29 12:37:21;;;;;;;15.77;6.22;;;22.80;99.90;;;;;;5073262;28;20052;-76
2022/10/29 12:39:54;;;;;;;15.48;5.38;;;23.00;99.90;;;;;;5073372;28;20056;-77
2022/10/29 12:42:25;;;;;;;22.88;8.88;;;23.00;99.90;;;;;;5073003;28;20021;-74
2022/10/29 12:45:22;;;;;;;19.80;7.88;;;22.90;99.90;;;;;;5071753;28;20520;-75
2022/10/29 12:48:04;;;;;;;18.73;6.32;;;22.80;99.90;;;;;;5072105;28;20123;-74
2022/10/29 12:50:32;;;;;;;21.75;6.45;;;22.90;99.90;;;;;;5071921;28;20169;-75
2022/10/29 12:53:24;;;;;;;19.25;9.13;;;22.80;99.90;;;;;;5071556;28;20028;-75
2022/10/29 12:55:50;;;;;;;18.50;7.35;;;22.90;99.90;;;;;;5072689;28;20024;-76
2022/10/29 12:58:41;;;;;;;24.05;12.40;;;22.90;99.90;;;;;;5072567;28;20029;-72
2022/10/29 13:01:29;;;;;;;31.38;13.45;;;22.80;99.90;;;;;;5076807;28;20028;-74
2022/10/29 13:03:55;;;;;;;17.42;8.80;;;22.80;99.90;;;;;;5075257;28;20087;-72
2022/10/29 13:06:42;;;;;;;22.05;10.07;;;22.70;99.90;;;;;;5076566;28;20472;-73
2022/10/29 13:09:34;;;;;;;11.23;4.70;;;22.70;99.90;;;;;;5076612;28;20024;-73
2022/10/29 13:12:03;;;;;;;11.90;4.53;;;22.70;99.90;;;;;;5089265;28;20085;-74
2022/10/29 13:14:42;;;;;;;24.17;6.22;;;22.70;99.90;;;;;;5096182;28;20046;-74
2022/10/29 13:17:25;;;;;;;10.82;4.45;;;22.80;99.90;;;;;;5093467;28;20016;-72
2022/10/29 13:20:01;;;;;;;15.43;5.00;;;22.70;99.90;;;;;;5096376;28;20028;-71
2022/10/29 13:22:45;;;;;;;14.63;5.37;;;22.70;99.90;;;;;;5077226;28;20048;-72
2022/10/29 13:25:32;;;;;;;10.57;3.25;;;22.90;99.90;;;;;;5077563;28;20343;-73
2022/10/29 13:27:58;;;;;;;;;;;23.00;99.90;;;;;;5090067;28;20111;-73
2022/10/29 13:30:28;;;;;;;15.80;5.30;;;23.00;99.90;;;;;;5090501;28;20360;-72
2022/10/29 13:32:55;;;;;;;11.82;4.88;;;22.90;99.90;;;;;;5079000;28;20518;-74
2022/10/29 13:35:20;;;;;;;19.05;5.40;;;22.90;99.90;;;;;;5074578;28;20056;-74
2022/10/29 13:37:45;;;;;;;12.50;4.65;;;22.80;99.90;;;;;;5078137;28;20025;-74
2022/10/29 13:40:20;;;;;;;16.52;6.32;;;22.70;99.90;;;;;;5074784;28;20028;-70
2022/10/29 13:43:08;;;;;;;16.25;8.40;;;22.70;99.90;;;;;;5074452;28;20366;-71
2022/10/29 13:45:36;;;;;;;13.90;5.40;;;22.50;99.90;;;;;;5076072;28;20056;-71
2022/10/29 13:48:05;;;;;;;10.38;5.25;;;22.60;99.90;;;;;;5074625;28;20025;-71
2022/10/29 13:50:35;;;;;;;17.15;5.68;;;22.60;99.90;;;;;;5075482;28;20056;-73
2022/10/29 13:53:04;;;;;;;13.10;5.45;;;22.40;99.90;;;;;;5075585;28;20115;-75
2022/10/29 13:55:32;;;;;;;14.50;4.90;;;22.30;99.90;;;;;;5074789;28;20021;-71